Time;durP1;ratioP1;P1;durP2;ratioP2;P2;SDS_P1;SDS_P2;PMS_P1;PMS_P2;Temp;Humidity;BMP_temperature;BMP_pressure;BME280_temperature;BME280_humidity;BME280_pressure;Samples;Min_cycle;Max_cycle;Signal;HPM_P1;HPM_P2
2023/05/08 00:04:54;;;;;;;24.33;21.87;;;16.50;99.90;;;;;;10454901;28;20301;-81
2023/05/08 00:09:56;;;;;;;24.83;22.47;;;16.50;99.90;;;;;;10456236;28;20295;-81
2023/05/08 00:15:00;;;;;;;24.23;21.80;;;16.50;99.90;;;;;;10457886;28;20308;-81
2023/05/08 00:20:02;;;;;;;24.87;22.63;;;16.50;99.90;;;;;;10454528;28;20201;-79
2023/05/08 00:25:05;;;;;;;26.33;23.57;;;16.50;99.90;;;;;;10455222;28;20225;-81
2023/05/08 00:30:10;;;;;;;29.17;26.30;;;16.50;99.90;;;;;;10455139;28;20244;-80
2023/05/08 00:35:12;;;;;;;29.67;26.60;;;16.50;99.90;;;;;;10457223;28;20226;-81
2023/05/08 00:40:14;;;;;;;30.27;26.03;;;16.50;99.90;;;;;;10455078;28;20190;-82
2023/05/08 00:45:19;;;;;;;30.30;27.00;;;16.50;99.90;;;;;;10456081;28;20288;-81
2023/05/08 00:50:21;;;;;;;30.43;27.17;;;16.50;99.90;;;;;;10453985;28;20205;-81
2023/05/08 00:55:24;;;;;;;30.60;27.37;;;16.50;99.90;;;;;;10435725;28;20482;-82
2023/05/08 01:00:28;;;;;;;31.17;27.77;;;16.60;99.90;;;;;;10437017;28;20259;-80
2023/05/08 01:05:30;;;;;;;34.10;30.00;;;16.60;99.90;;;;;;10433724;28;20224;-79
2023/05/08 01:10:39;;;;;;;32.97;26.87;;;16.60;99.90;;;;;;10455638;28;20205;-80
2023/05/08 01:15:49;;;;;;;34.77;28.43;;;16.60;99.90;;;;;;10454459;28;20678;-81
2023/05/08 01:21:01;;;;;;;31.03;27.37;;;16.60;99.90;;;;;;10456755;28;20220;-80
2023/05/08 01:26:38;;;;;;;34.20;29.20;;;16.60;99.90;;;;;;10439650;28;20213;-80
2023/05/08 01:31:59;;;;;;;33.73;30.10;;;16.60;99.90;;;;;;10439738;28;20234;-82
2023/05/08 01:37:05;;;;;;;32.37;28.97;;;16.60;99.90;;;;;;10459486;28;20296;-80
2023/05/08 01:42:25;;;;;;;34.80;30.50;;;16.60;99.90;;;;;;10459220;28;20220;-82
2023/05/08 01:47:32;;;;;;;39.90;33.90;;;16.60;99.90;;;;;;10459426;28;20190;-80
2023/05/08 01:52:42;;;;;;;39.60;32.57;;;16.60;99.90;;;;;;10460376;28;20218;-82
2023/05/08 01:57:48;;;;;;;37.30;32.20;;;16.60;99.90;;;;;;10461088;28;20198;-81
2023/05/08 02:02:54;;;;;;;38.67;31.10;;;16.60;99.90;;;;;;10442600;28;20206;-80
2023/05/08 02:07:58;;;;;;;35.53;30.97;;;16.60;99.90;;;;;;10461932;28;20225;-81
2023/05/08 02:13:02;;;;;;;36.10;28.97;;;16.60;99.90;;;;;;10465350;28;20763;-81
2023/05/08 02:18:08;;;;;;;40.33;32.70;;;16.60;99.90;;;;;;10465021;28;20688;-81
2023/05/08 02:23:12;;;;;;;32.50;29.10;;;16.60;99.90;;;;;;10449248;28;20252;-81
2023/05/08 02:28:15;;;;;;;38.60;31.40;;;16.60;99.90;;;;;;10473196;28;20201;-82
2023/05/08 02:33:20;;;;;;;37.50;31.60;;;16.60;99.90;;;;;;10476536;28;20221;-82
2023/05/08 02:38:25;;;;;;;37.10;30.00;;;16.60;99.90;;;;;;10482991;28;20194;-79
2023/05/08 02:43:28;;;;;;;32.53;28.07;;;16.60;99.90;;;;;;10451570;28;20210;-80
2023/05/08 02:48:38;;;;;;;26.93;24.10;;;16.60;99.90;;;;;;10458486;28;20198;-80
2023/05/08 02:53:47;;;;;;;26.53;23.70;;;16.60;99.90;;;;;;10458140;28;20698;-80
2023/05/08 02:58:59;;;;;;;21.90;20.00;;;16.60;99.90;;;;;;10442703;28;20194;-81
2023/05/08 03:04:07;;;;;;;24.70;22.23;;;16.70;99.90;;;;;;10459075;28;20714;-80
2023/05/08 03:09:16;;;;;;;21.43;19.53;;;16.70;99.90;;;;;;10458180;28;20207;-80
2023/05/08 03:14:22;;;;;;;20.93;19.10;;;16.70;99.90;;;;;;10459147;28;20221;-80
2023/05/08 03:19:30;;;;;;;20.87;19.07;;;16.70;99.90;;;;;;10457887;28;20220;-79
2023/05/08 03:24:36;;;;;;;20.53;18.83;;;16.70;99.90;;;;;;10457364;28;20621;-79
2023/05/08 03:29:39;;;;;;;22.47;20.53;;;16.70;99.90;;;;;;10457253;28;20225;-80
2023/05/08 03:34:43;;;;;;;21.33;19.53;;;16.70;99.90;;;;;;10448278;23;20701;-80
2023/05/08 03:39:46;;;;;;;24.50;22.30;;;16.70;99.90;;;;;;10414805;28;20205;-80
2023/05/08 03:44:50;;;;;;;23.50;21.47;;;16.60;99.90;;;;;;10425361;28;20384;-81
2023/05/08 03:49:53;;;;;;;25.67;23.17;;;16.60;99.90;;;;;;10440374;28;20289;-81
2023/05/08 03:54:56;;;;;;;27.37;24.97;;;16.60;99.90;;;;;;10441106;28;20751;-82
2023/05/08 04:00:04;;;;;;;27.13;24.40;;;16.60;99.90;;;;;;10440427;28;20256;-81
2023/05/08 04:05:24;;;;;;;25.93;23.37;;;16.60;99.90;;;;;;10463971;28;20214;-82
2023/05/08 04:10:31;;;;;;;28.53;25.93;;;16.60;99.90;;;;;;10437428;28;20613;-84
2023/05/08 04:15:38;;;;;;;26.17;23.80;;;16.60;99.90;;;;;;10454559;28;20222;-83
2023/05/08 04:20:46;;;;;;;24.93;22.90;;;16.60;99.90;;;;;;10473388;28;20194;-83
2023/05/08 04:25:52;;;;;;;25.20;22.90;;;16.60;99.90;;;;;;10464151;28;20223;-83
2023/05/08 04:30:56;;;;;;;26.17;23.97;;;16.60;99.90;;;;;;10464178;28;20220;-82
2023/05/08 04:36:03;;;;;;;26.10;23.40;;;16.60;99.90;;;;;;10446247;28;20325;-83
2023/05/08 04:41:06;;;;;;;25.53;23.23;;;16.60;99.90;;;;;;10456664;28;20559;-81
2023/05/08 04:46:09;;;;;;;25.67;23.27;;;16.60;99.90;;;;;;10444981;28;20280;-81
2023/05/08 04:51:13;;;;;;;25.00;22.80;;;16.70;99.90;;;;;;10460764;28;20224;-82
2023/05/08 04:56:15;;;;;;;24.57;22.37;;;16.70;99.90;;;;;;10453184;28;20640;-80
2023/05/08 05:01:17;;;;;;;25.07;22.87;;;16.70;99.90;;;;;;10457129;28;20248;-80
2023/05/08 05:06:21;;;;;;;25.17;22.60;;;16.70;99.90;;;;;;10455563;28;20265;-80
2023/05/08 05:11:23;;;;;;;25.47;23.10;;;16.70;99.90;;;;;;10453878;28;20657;-82
2023/05/08 05:16:25;;;;;;;24.43;22.23;;;16.70;99.90;;;;;;10452910;28;20217;-81
2023/05/08 05:21:29;;;;;;;26.20;23.97;;;16.70;99.90;;;;;;10455605;28;20194;-82
2023/05/08 05:26:32;;;;;;;26.63;24.33;;;16.70;99.90;;;;;;10442470;28;20309;-82
2023/05/08 05:31:34;;;;;;;26.07;23.77;;;16.70;99.90;;;;;;10443891;28;20198;-82
2023/05/08 05:36:38;;;;;;;26.77;24.37;;;16.70;99.90;;;;;;10459567;28;20642;-82
2023/05/08 05:41:43;;;;;;;26.20;23.60;;;16.80;99.90;;;;;;10463022;28;20550;-82
2023/05/08 05:46:45;;;;;;;26.20;23.80;;;16.80;99.90;;;;;;10458585;28;20219;-82
2023/05/08 05:51:49;;;;;;;26.37;23.60;;;16.80;99.90;;;;;;10460732;28;20194;-82
2023/05/08 05:56:52;;;;;;;25.60;23.20;;;16.80;99.90;;;;;;10442187;28;20228;-83
2023/05/08 06:01:54;;;;;;;25.73;23.37;;;16.80;99.90;;;;;;10464595;28;20202;-83
2023/05/08 06:06:58;;;;;;;26.67;24.37;;;16.80;99.90;;;;;;10453122;28;20193;-83
2023/05/08 06:12:00;;;;;;;27.07;24.47;;;16.80;99.90;;;;;;10469825;28;20650;-83
2023/05/08 06:17:03;;;;;;;26.60;24.10;;;16.80;99.90;;;;;;10483018;28;20205;-83
2023/05/08 06:22:07;;;;;;;23.70;21.50;;;16.90;99.90;;;;;;10449798;28;20251;-83
2023/05/08 06:27:09;;;;;;;24.00;21.90;;;16.90;99.90;;;;;;10470438;28;20226;-83
2023/05/08 06:32:12;;;;;;;23.40;21.40;;;16.90;99.90;;;;;;10469793;28;20218;-83
2023/05/08 06:37:15;;;;;;;22.90;20.70;;;16.90;99.90;;;;;;10469216;28;20222;-83
2023/05/08 06:42:17;;;;;;;23.33;21.40;;;16.90;99.90;;;;;;10469400;28;20214;-83
2023/05/08 06:47:21;;;;;;;23.40;21.40;;;17.00;99.90;;;;;;10468672;28;20201;-84
2023/05/08 06:52:25;;;;;;;21.97;19.90;;;17.00;99.90;;;;;;10470754;28;20681;-84
2023/05/08 06:57:29;;;;;;;22.80;20.80;;;17.10;99.90;;;;;;10452245;28;20297;-84
2023/05/08 07:02:31;;;;;;;21.93;19.90;;;17.10;99.90;;;;;;10466240;28;20222;-83
2023/05/08 07:07:34;;;;;;;21.17;19.07;;;17.10;99.90;;;;;;10468959;28;20202;-84
2023/05/08 07:12:36;;;;;;;22.70;20.50;;;17.20;99.90;;;;;;10468303;28;20217;-82
2023/05/08 07:17:38;;;;;;;22.33;20.53;;;17.30;99.90;;;;;;10457570;28;20201;-81
2023/05/08 07:22:42;;;;;;;22.33;20.33;;;17.30;99.90;;;;;;10481529;28;20681;-82
2023/05/08 07:27:44;;;;;;;22.63;20.63;;;17.40;99.90;;;;;;10450667;28;20198;-81
2023/05/08 07:32:46;;;;;;;21.40;19.53;;;17.40;99.90;;;;;;10464151;28;20221;-81
2023/05/08 07:37:49;;;;;;;21.93;19.90;;;17.40;99.90;;;;;;10463983;28;20224;-81
2023/05/08 07:42:52;;;;;;;23.93;21.73;;;17.40;99.90;;;;;;10463087;28;20218;-81
2023/05/08 07:47:56;;;;;;;22.70;20.50;;;17.40;99.90;;;;;;10462523;28;20205;-81
2023/05/08 07:52:59;;;;;;;20.33;18.57;;;17.50;99.90;;;;;;10464530;28;20233;-82
2023/05/08 07:58:01;;;;;;;17.87;16.47;;;17.60;99.90;;;;;;10471777;28;20218;-83
2023/05/08 08:03:04;;;;;;;13.13;11.97;;;17.80;99.90;;;;;;10464330;28;20206;-82
2023/05/08 08:08:07;;;;;;;10.97;10.13;;;17.90;99.90;;;;;;10462510;28;20225;-82
2023/05/08 08:13:09;;;;;;;11.53;10.73;;;18.00;99.90;;;;;;10461761;28;20229;-82
2023/05/08 08:18:11;;;;;;;10.57;9.73;;;18.00;99.90;;;;;;10463101;28;20200;-81
2023/05/08 08:23:15;;;;;;;10.80;10.00;;;18.00;99.90;;;;;;10460593;28;20631;-81
2023/05/08 08:28:17;;;;;;;12.07;10.97;;;17.90;99.90;;;;;;10444589;28;20194;-82
2023/05/08 08:33:19;;;;;;;12.77;11.73;;;17.80;99.90;;;;;;10462312;28;20236;-82
2023/05/08 08:38:22;;;;;;;14.40;13.30;;;17.80;99.90;;;;;;10461491;28;20239;-82
2023/05/08 08:43:25;;;;;;;14.53;13.10;;;17.70;99.90;;;;;;10444487;28;20694;-81
2023/05/08 08:48:30;;;;;;;14.40;13.20;;;17.70;99.90;;;;;;10443910;28;20715;-81
2023/05/08 08:53:37;;;;;;;13.23;12.13;;;17.80;99.90;;;;;;10461802;28;20218;-82
2023/05/08 08:58:48;;;;;;;14.40;13.10;;;17.80;99.90;;;;;;10460161;28;20251;-82
2023/05/08 09:03:51;;;;;;;13.93;12.70;;;17.90;99.90;;;;;;10463297;28;20247;-82
2023/05/08 09:08:56;;;;;;;14.43;13.17;;;17.90;99.90;;;;;;10462427;28;20251;-82
2023/05/08 09:13:59;;;;;;;13.80;12.50;;;17.90;99.90;;;;;;10472678;28;20248;-82
2023/05/08 09:19:02;;;;;;;16.37;14.77;;;17.80;99.90;;;;;;10487894;28;20217;-81
2023/05/08 09:24:06;;;;;;;15.73;14.47;;;17.80;99.90;;;;;;10466310;28;20226;-81
2023/05/08 09:29:14;;;;;;;18.33;16.73;;;17.70;99.90;;;;;;10478518;28;20233;-83
2023/05/08 09:34:25;;;;;;;18.43;16.93;;;17.60;99.90;;;;;;10478243;28;20232;-82
2023/05/08 09:39:29;;;;;;;19.93;17.93;;;17.60;99.90;;;;;;10462683;28;20264;-81
2023/05/08 09:44:44;;;;;;;18.20;16.47;;;17.60;99.90;;;;;;10446184;28;20210;-81
2023/05/08 09:49:57;;;;;;;19.30;17.50;;;17.70;99.90;;;;;;10464879;28;20193;-81
2023/05/08 09:55:02;;;;;;;20.90;19.03;;;17.70;99.90;;;;;;10463734;28;20226;-81
2023/05/08 10:00:07;;;;;;;18.83;16.93;;;17.90;99.90;;;;;;10462210;28;20278;-81
2023/05/08 10:05:24;;;;;;;19.57;17.77;;;18.00;99.90;;;;;;10462927;28;20236;-81
2023/05/08 10:10:29;;;;;;;17.23;15.57;;;18.30;99.90;;;;;;10451867;28;20613;-80
2023/05/08 10:15:32;;;;;;;16.23;14.87;;;18.50;99.90;;;;;;10464706;28;20247;-82
2023/05/08 10:20:37;;;;;;;13.70;12.40;;;18.70;99.90;;;;;;10468755;28;20277;-83
2023/05/08 10:25:44;;;;;;;12.67;11.47;;;18.80;99.90;;;;;;10467987;28;20218;-82
2023/05/08 10:30:48;;;;;;;14.07;12.70;;;19.00;99.90;;;;;;10450621;28;20197;-81
2023/05/08 10:35:51;;;;;;;12.80;11.70;;;19.10;99.90;;;;;;10466678;28;20249;-80
2023/05/08 10:40:57;;;;;;;12.30;11.30;;;19.20;99.90;;;;;;10468300;28;20220;-81
2023/05/08 10:46:21;;;;;;;12.30;11.10;;;19.30;99.90;;;;;;10468367;28;20221;-84
2023/05/08 10:51:32;;;;;;;12.00;11.03;;;19.30;99.90;;;;;;10465864;28;20198;-82
2023/05/08 10:56:38;;;;;;;10.93;10.03;;;19.20;99.90;;;;;;10466428;28;20249;-82
2023/05/08 11:01:40;;;;;;;7.77;7.17;;;19.20;99.90;;;;;;10471535;28;20202;-83
2023/05/08 11:06:47;;;;;;;9.30;8.60;;;19.30;99.90;;;;;;10472694;28;20232;-81
2023/05/08 11:12:12;;;;;;;8.60;7.97;;;19.20;99.90;;;;;;10461609;28;20202;-81
2023/05/08 11:17:23;;;;;;;9.93;9.23;;;19.30;99.90;;;;;;10455071;28;20256;-83
2023/05/08 11:22:27;;;;;;;9.60;8.83;;;19.30;99.90;;;;;;10447469;28;20244;-81
2023/05/08 11:27:41;;;;;;;9.00;8.30;;;19.40;99.90;;;;;;10433149;28;20233;-80
2023/05/08 11:33:17;;;;;;;8.97;8.27;;;19.60;99.90;;;;;;10460432;28;20241;-80
2023/05/08 11:38:21;;;;;;;10.27;9.47;;;19.70;99.90;;;;;;10461069;28;20226;-84
2023/05/08 11:43:57;;;;;;;10.43;9.63;;;19.80;99.90;;;;;;10466641;28;20325;-82
2023/05/08 11:49:01;;;;;;;10.90;10.10;;;19.90;99.90;;;;;;10428698;28;20198;-85
2023/05/08 11:54:04;;;;;;;12.40;11.40;;;19.90;99.90;;;;;;10465070;28;20222;-82
2023/05/08 11:59:08;;;;;;;13.43;12.13;;;19.80;99.90;;;;;;10464681;28;20194;-81
2023/05/08 12:04:12;;;;;;;15.23;13.67;;;19.80;99.90;;;;;;10464354;28;20764;-81
2023/05/08 12:09:16;;;;;;;14.57;13.17;;;19.70;99.90;;;;;;10462856;28;20198;-81
2023/05/08 12:14:22;;;;;;;16.67;15.17;;;19.70;99.90;;;;;;10463606;28;20245;-81
2023/05/08 12:19:24;;;;;;;15.33;13.87;;;19.60;99.90;;;;;;10446152;28;20239;-82
2023/05/08 12:24:26;;;;;;;15.90;14.60;;;19.60;99.90;;;;;;10463316;28;20210;-81
2023/05/08 12:29:30;;;;;;;15.87;14.47;;;19.60;99.90;;;;;;10446517;28;20200;-82
2023/05/08 12:34:32;;;;;;;16.00;14.60;;;19.50;99.90;;;;;;10467346;28;20234;-84
2023/05/08 12:39:36;;;;;;;14.60;13.30;;;19.50;99.90;;;;;;10468508;28;20685;-82
2023/05/08 12:44:39;;;;;;;13.73;12.53;;;19.50;99.90;;;;;;10464516;28;20292;-82
2023/05/08 12:49:41;;;;;;;13.07;11.97;;;19.60;99.90;;;;;;10461917;28;20196;-81
2023/05/08 12:54:48;;;;;;;12.73;11.73;;;19.70;99.90;;;;;;10463154;28;20237;-82
2023/05/08 13:00:02;;;;;;;12.90;11.90;;;19.90;99.90;;;;;;10423892;28;20187;-81
2023/05/08 13:05:05;;;;;;;12.40;11.40;;;20.10;99.90;;;;;;10461202;28;20241;-81
2023/05/08 13:10:08;;;;;;;13.00;11.93;;;20.10;99.90;;;;;;10461889;28;20197;-83
2023/05/08 13:15:11;;;;;;;13.13;12.13;;;20.10;99.90;;;;;;10461574;28;20225;-81
2023/05/08 13:20:13;;;;;;;13.47;12.37;;;20.10;99.90;;;;;;10461972;28;20225;-82
2023/05/08 13:25:16;;;;;;;12.10;11.10;;;20.10;99.90;;;;;;10461707;28;20240;-82
2023/05/08 13:30:20;;;;;;;11.90;10.90;;;20.10;99.90;;;;;;10461084;28;20197;-83
2023/05/08 13:35:23;;;;;;;11.77;10.87;;;20.20;99.90;;;;;;10441280;28;20316;-82
2023/05/08 13:40:26;;;;;;;13.80;12.60;;;20.20;99.90;;;;;;10463344;28;20194;-82
2023/05/08 13:45:30;;;;;;;14.17;12.87;;;20.30;99.90;;;;;;10465038;28;20609;-84
2023/05/08 13:50:32;;;;;;;12.60;11.67;;;20.40;99.90;;;;;;10479256;28;20197;-80
2023/05/08 13:55:34;;;;;;;12.67;11.57;;;20.40;99.90;;;;;;10490686;28;20232;-83
2023/05/08 14:00:37;;;;;;;14.07;12.77;;;20.40;99.90;;;;;;10474520;28;20229;-82
2023/05/08 14:05:39;;;;;;;14.60;13.10;;;20.40;99.90;;;;;;10465343;28;20306;-82
2023/05/08 14:10:41;;;;;;;13.50;12.40;;;20.50;99.90;;;;;;10459042;28;20266;-82
2023/05/08 14:15:45;;;;;;;15.27;14.07;;;20.40;99.90;;;;;;10462002;28;20240;-82
2023/05/08 14:20:47;;;;;;;13.90;12.80;;;20.30;99.90;;;;;;10464280;28;20573;-82
2023/05/08 14:25:49;;;;;;;14.77;13.53;;;20.10;99.90;;;;;;10466297;28;20225;-83
2023/05/08 14:30:53;;;;;;;17.10;15.53;;;20.00;99.90;;;;;;10468654;28;20205;-83
2023/05/08 14:35:55;;;;;;;15.63;14.33;;;19.90;99.90;;;;;;10470368;28;20275;-83
2023/05/08 14:40:57;;;;;;;16.53;15.13;;;19.70;99.90;;;;;;10469419;28;20209;-84
2023/05/08 14:46:00;;;;;;;18.63;17.10;;;19.50;99.90;;;;;;10474225;28;20263;-83
2023/05/08 14:51:02;;;;;;;20.23;18.53;;;19.20;99.90;;;;;;10480275;28;20198;-84
2023/05/08 14:56:05;;;;;;;22.30;20.43;;;19.00;99.90;;;;;;10451409;28;20289;-84
2023/05/08 15:01:08;;;;;;;22.93;21.07;;;18.70;99.90;;;;;;10475548;28;20586;-84
2023/05/08 15:06:10;;;;;;;24.37;22.53;;;18.60;99.90;;;;;;10467105;28;20214;-83
2023/05/08 15:11:13;;;;;;;27.50;25.10;;;18.40;99.90;;;;;;10455740;28;20294;-83
2023/05/08 15:16:16;;;;;;;28.77;26.17;;;18.30;99.90;;;;;;10484022;28;20229;-83
2023/05/08 15:21:20;;;;;;;31.17;28.57;;;18.30;99.90;;;;;;10469963;28;20217;-82
2023/05/08 15:26:22;;;;;;;32.50;29.70;;;18.40;99.90;;;;;;10468581;28;20617;-83
2023/05/08 15:31:26;;;;;;;32.17;29.40;;;18.50;99.90;;;;;;10466407;28;20622;-82
2023/05/08 15:36:30;;;;;;;31.00;28.30;;;18.40;99.90;;;;;;10468162;28;20713;-82
2023/05/08 15:41:32;;;;;;;28.60;26.27;;;18.40;99.90;;;;;;10475628;28;20190;-82
2023/05/08 15:46:36;;;;;;;28.53;26.07;;;18.50;99.90;;;;;;10460409;28;20236;-82
2023/05/08 15:51:38;;;;;;;30.20;27.30;;;18.50;99.90;;;;;;10459918;28;20221;-82
2023/05/08 15:56:40;;;;;;;29.43;26.90;;;18.60;99.90;;;;;;10461196;28;20214;-83
2023/05/08 16:01:45;;;;;;;29.87;27.30;;;18.80;99.90;;;;;;10462798;28;20626;-82
2023/05/08 16:06:47;;;;;;;28.53;26.13;;;18.90;99.90;;;;;;10462282;28;20646;-83
2023/05/08 16:11:49;;;;;;;24.73;22.57;;;19.00;99.90;;;;;;10462108;28;20217;-81
2023/05/08 16:16:53;;;;;;;28.77;26.33;;;19.00;99.90;;;;;;10464168;28;20225;-83
2023/05/08 16:21:55;;;;;;;26.80;24.50;;;19.10;99.90;;;;;;10446378;28;20221;-82
2023/05/08 16:26:57;;;;;;;26.40;24.00;;;19.00;99.90;;;;;;10461448;28;20217;-82
2023/05/08 16:32:00;;;;;;;26.50;24.10;;;19.00;99.90;;;;;;10443680;28;20198;-82
2023/05/08 16:37:02;;;;;;;28.47;26.00;;;18.90;99.90;;;;;;10460076;28;20228;-82
2023/05/08 16:42:06;;;;;;;26.97;24.67;;;18.90;99.90;;;;;;10461336;28;20584;-82
2023/05/08 16:47:09;;;;;;;30.53;27.70;;;18.80;99.90;;;;;;10444867;28;20674;-82
2023/05/08 16:52:11;;;;;;;28.63;26.07;;;18.80;99.90;;;;;;10455143;28;20229;-81
2023/05/08 16:57:14;;;;;;;29.07;26.47;;;18.70;99.90;;;;;;10449066;28;20218;-82
2023/05/08 17:02:17;;;;;;;27.97;25.57;;;18.70;99.90;;;;;;10455189;28;20638;-82
2023/05/08 17:07:19;;;;;;;28.00;25.50;;;18.80;99.90;;;;;;10455231;28;20243;-82
2023/05/08 17:12:21;;;;;;;30.57;27.83;;;18.70;99.90;;;;;;10456893;28;20230;-80
2023/05/08 17:17:25;;;;;;;29.17;26.47;;;18.70;99.90;;;;;;10458512;28;20701;-82
2023/05/08 17:22:27;;;;;;;30.83;27.93;;;18.60;99.90;;;;;;10451987;28;20705;-81
2023/05/08 17:27:29;;;;;;;28.60;26.27;;;18.60;99.90;;;;;;10453302;28;20275;-81
2023/05/08 17:32:32;;;;;;;25.30;22.97;;;18.50;99.90;;;;;;10446555;28;20240;-80
2023/05/08 17:37:34;;;;;;;27.13;24.80;;;18.40;99.90;;;;;;10450975;28;20221;-81
2023/05/08 17:42:37;;;;;;;24.23;22.27;;;18.40;99.90;;;;;;10451568;28;20267;-82
2023/05/08 17:47:40;;;;;;;20.73;18.93;;;18.40;99.90;;;;;;10452581;28;20206;-82
2023/05/08 17:52:42;;;;;;;22.90;21.20;;;18.30;99.90;;;;;;10453075;28;20248;-81
2023/05/08 17:57:44;;;;;;;21.77;19.97;;;18.30;99.90;;;;;;10453987;28;20217;-82
2023/05/08 18:02:48;;;;;;;22.77;20.87;;;18.30;99.90;;;;;;10463666;28;20267;-81
2023/05/08 18:07:51;;;;;;;24.27;22.17;;;18.30;99.90;;;;;;10477248;28;20198;-81
2023/05/08 18:12:53;;;;;;;20.00;18.10;;;18.20;99.90;;;;;;10466783;28;20238;-81
2023/05/08 18:17:57;;;;;;;21.10;19.40;;;18.10;99.90;;;;;;10452398;28;20245;-81
2023/05/08 18:22:59;;;;;;;20.40;18.70;;;18.10;99.90;;;;;;10475891;28;20225;-81
2023/05/08 18:28:01;;;;;;;22.23;20.23;;;18.00;99.90;;;;;;10471857;28;20227;-81
2023/05/08 18:33:04;;;;;;;20.27;18.57;;;18.00;99.90;;;;;;10461420;28;20226;-81
2023/05/08 18:38:06;;;;;;;19.80;18.20;;;17.90;99.90;;;;;;10461709;28;20218;-81
2023/05/08 18:43:08;;;;;;;19.70;18.10;;;17.80;99.90;;;;;;10463356;28;20218;-81
2023/05/08 18:48:12;;;;;;;20.40;18.80;;;17.80;99.90;;;;;;10475886;28;20281;-81
2023/05/08 18:53:14;;;;;;;20.77;18.77;;;17.70;99.90;;;;;;10457864;28;20256;-81
2023/05/08 18:58:18;;;;;;;20.77;18.87;;;17.70;99.90;;;;;;10456412;28;20218;-81
2023/05/08 19:03:21;;;;;;;19.63;18.10;;;17.60;99.90;;;;;;10456175;28;20241;-81
2023/05/08 19:08:23;;;;;;;20.37;17.67;;;17.60;99.90;;;;;;10454350;28;20193;-81
2023/05/08 19:13:25;;;;;;;19.80;18.00;;;17.50;99.90;;;;;;10454538;28;20307;-81
2023/05/08 19:18:30;;;;;;;21.30;19.40;;;17.40;99.90;;;;;;10457689;28;20223;-81
2023/05/08 19:23:32;;;;;;;19.30;17.30;;;17.30;99.90;;;;;;10437562;28;20230;-81
2023/05/08 19:28:35;;;;;;;20.30;18.50;;;17.20;99.90;;;;;;10452780;28;20248;-81
2023/05/08 19:33:38;;;;;;;19.50;17.80;;;17.20;99.90;;;;;;10443969;28;20218;-81
2023/05/08 19:38:40;;;;;;;20.20;18.27;;;17.10;99.90;;;;;;10454790;28;20496;-81
2023/05/08 19:43:42;;;;;;;22.80;20.70;;;17.00;99.90;;;;;;10435384;28;20249;-81
2023/05/08 19:48:46;;;;;;;24.00;21.80;;;17.00;99.90;;;;;;10447943;28;20202;-80
2023/05/08 19:53:48;;;;;;;20.80;19.10;;;17.00;99.90;;;;;;10451735;28;20247;-81
2023/05/08 19:58:50;;;;;;;20.63;18.83;;;17.00;99.90;;;;;;10452868;28;20704;-81
2023/05/08 20:03:54;;;;;;;19.20;17.40;;;16.90;99.90;;;;;;10436924;28;20716;-81
2023/05/08 20:08:56;;;;;;;21.40;19.30;;;16.90;99.90;;;;;;10454200;28;20630;-81
2023/05/08 20:13:58;;;;;;;20.47;18.77;;;16.80;99.90;;;;;;10455498;28;20701;-81
2023/05/08 20:19:01;;;;;;;20.80;18.90;;;16.80;99.90;;;;;;10461430;28;20320;-81
2023/05/08 20:24:04;;;;;;;20.23;18.43;;;16.80;99.90;;;;;;10469527;28;20217;-82
2023/05/08 20:29:06;;;;;;;18.43;16.83;;;16.80;99.90;;;;;;10469396;28;20193;-81
2023/05/08 20:34:09;;;;;;;21.07;18.97;;;16.80;99.90;;;;;;10448405;28;20588;-81
2023/05/08 20:39:12;;;;;;;19.07;17.47;;;16.80;99.90;;;;;;10454538;28;20228;-81
2023/05/08 20:44:16;;;;;;;20.60;18.80;;;16.80;99.90;;;;;;10455226;28;20631;-81
2023/05/08 20:49:19;;;;;;;19.60;18.00;;;16.80;99.90;;;;;;10456051;28;20533;-81
2023/05/08 20:54:24;;;;;;;19.73;17.83;;;16.70;99.90;;;;;;10456453;28;20259;-81
2023/05/08 20:59:26;;;;;;;19.83;17.73;;;16.60;99.90;;;;;;10457821;28;20228;-81
2023/05/08 21:04:30;;;;;;;19.40;17.70;;;16.60;99.90;;;;;;10456596;28;20305;-81
2023/05/08 21:09:32;;;;;;;19.97;17.97;;;16.50;99.90;;;;;;10454042;28;20617;-81
2023/05/08 21:14:35;;;;;;;19.43;17.57;;;16.40;99.90;;;;;;10454401;28;20305;-81
2023/05/08 21:19:38;;;;;;;19.07;17.43;;;16.30;99.90;;;;;;10455519;28;20213;-81
2023/05/08 21:24:43;;;;;;;20.93;18.93;;;16.30;99.90;;;;;;10446203;28;20218;-81
2023/05/08 21:29:45;;;;;;;19.60;17.80;;;16.30;99.90;;;;;;10427361;28;20189;-81
2023/05/08 21:34:48;;;;;;;20.13;18.13;;;16.30;99.90;;;;;;10455980;22;20230;-81
2023/05/08 21:39:50;;;;;;;20.37;18.57;;;16.20;99.90;;;;;;10431531;28;20218;-81
2023/05/08 21:44:54;;;;;;;20.50;18.50;;;16.20;99.90;;;;;;10433239;28;20240;-81
2023/05/08 21:49:57;;;;;;;19.83;18.00;;;16.20;99.90;;;;;;10471423;28;20198;-80
2023/05/08 21:54:59;;;;;;;20.13;18.33;;;16.10;99.90;;;;;;10476182;28;20218;-81
2023/05/08 22:00:02;;;;;;;20.87;19.00;;;16.10;99.90;;;;;;10453694;28;20214;-81
2023/05/08 22:05:07;;;;;;;19.83;17.93;;;16.10;99.90;;;;;;10442067;28;20218;-81
2023/05/08 22:10:12;;;;;;;22.23;20.30;;;16.10;99.90;;;;;;10474176;28;20198;-79
2023/05/08 22:15:14;;;;;;;22.80;20.70;;;16.10;99.90;;;;;;10467787;28;20225;-80
2023/05/08 22:20:18;;;;;;;21.17;19.10;;;16.10;99.90;;;;;;10469326;28;20198;-80
2023/05/08 22:25:21;;;;;;;20.67;18.70;;;16.20;99.90;;;;;;10466896;28;20214;-81
2023/05/08 22:30:23;;;;;;;19.73;17.90;;;16.20;99.90;;;;;;10446200;28;20194;-80
2023/05/08 22:35:27;;;;;;;20.63;18.53;;;16.30;99.90;;;;;;10444330;28;20256;-80
2023/05/08 22:40:29;;;;;;;20.80;18.80;;;16.30;99.90;;;;;;10452444;28;20257;-82
2023/05/08 22:45:32;;;;;;;19.87;18.13;;;16.30;99.90;;;;;;10466220;28;20244;-82
2023/05/08 22:50:36;;;;;;;22.27;20.07;;;16.30;99.90;;;;;;10470551;28;20194;-82
2023/05/08 22:55:38;;;;;;;20.17;18.27;;;16.30;99.90;;;;;;10470407;28;20222;-80
2023/05/08 23:00:40;;;;;;;20.27;18.17;;;16.40;99.90;;;;;;10473077;28;20197;-82
2023/05/08 23:05:44;;;;;;;22.70;20.60;;;16.40;99.90;;;;;;10417223;28;20210;-81
2023/05/08 23:10:46;;;;;;;22.83;20.73;;;16.40;99.90;;;;;;10472854;28;20662;-82
2023/05/08 23:15:48;;;;;;;21.33;19.43;;;16.40;99.90;;;;;;10470770;28;20210;-80
2023/05/08 23:20:52;;;;;;;22.90;20.90;;;16.30;99.90;;;;;;10455720;28;20209;-82
2023/05/08 23:25:54;;;;;;;23.03;20.70;;;16.30;99.90;;;;;;10438483;28;20201;-81
2023/05/08 23:30:56;;;;;;;24.13;21.93;;;16.40;99.90;;;;;;10453903;28;20244;-81
2023/05/08 23:36:00;;;;;;;23.63;21.13;;;16.40;99.90;;;;;;10436989;28;20304;-82
2023/05/08 23:41:05;;;;;;;23.00;20.70;;;16.40;99.90;;;;;;10436903;28;20194;-81
2023/05/08 23:46:07;;;;;;;23.10;20.87;;;16.40;99.90;;;;;;10453665;28;20213;-82
2023/05/08 23:51:10;;;;;;;23.13;20.97;;;16.40;99.90;;;;;;10454075;28;20240;-82
2023/05/08 23:56:12;;;;;;;23.43;21.10;;;16.40;99.90;;;;;;10471857;28;20677;-82
